Terminal Aerodrome Forecast
Issued by NWS

Home | Current Version | Previous Version | Graphics & Text | Print | Product List | Glossary On
Versions: 1 2 3 4 5 6 7 8 9 10 11 12 13 14 15 16 17 18 19 20 21 22 23 24 25 26 27 28 29 30
000
FTUS43 KMPX 291059 AAE
TAFRWF
TAF AMD
KRWF 291059Z 2911/3006 00000KT 3SM BR BKN002
      TEMPO 2911/2912 1/2SM FG
     FM291400 18007KT P6SM SKC
     FM300500 18004KT 6SM BR SKC=

USA.gov is the U.S. government's official web portal to all federal, state and local government web resources and services.